createdAt,value
2019-02-28T00:01:07.759Z,96962.30
2019-02-28T00:03:35.996Z,96958.80
2019-02-28T00:06:02.307Z,96951.34
2019-02-28T00:08:28.598Z,96952.14
2019-02-28T00:10:54.964Z,96949.46
2019-02-28T00:13:22.426Z,96946.25
2019-02-28T00:15:49.016Z,96944.39
2019-02-28T00:18:16.488Z,96941.70
2019-02-28T00:20:43.319Z,96927.53
2019-02-28T00:23:09.646Z,96922.73
2019-02-28T00:25:38.058Z,96918.69
2019-02-28T00:28:04.175Z,96906.60
2019-02-28T00:30:30.580Z,96908.06
2019-02-28T00:32:59.325Z,96907.59
2019-02-28T00:35:25.394Z,96915.64
2019-02-28T00:37:51.792Z,96910.81
2019-02-28T00:40:18.108Z,96927.13
2019-02-28T00:42:44.407Z,96924.42
2019-02-28T00:45:13.319Z,96926.84
2019-02-28T00:47:39.634Z,96925.51
2019-02-28T00:50:06.344Z,96917.47
2019-02-28T00:52:35.471Z,96912.18
2019-02-28T00:55:00.883Z,96905.23
2019-02-28T00:57:27.592Z,96898.23
2019-02-28T00:59:53.979Z,96888.56
2019-02-28T01:02:20.649Z,96880.77
2019-02-28T01:04:47.040Z,96866.53
2019-02-28T01:07:16.252Z,96870.48
2019-02-28T01:09:41.925Z,96864.50
2019-02-28T01:12:08.521Z,96863.66
2019-02-28T01:14:35.805Z,96864.94
2019-02-28T01:17:03.007Z,96852.03
2019-02-28T01:19:29.547Z,96850.69
2019-02-28T01:21:56.297Z,96846.41
2019-02-28T01:24:22.678Z,96837.09
2019-02-28T01:26:49.099Z,96829.95
2019-02-28T01:29:15.491Z,96829.97
2019-02-28T01:31:42.631Z,96824.86
2019-02-28T01:34:09.867Z,96824.42
2019-02-28T01:36:36.301Z,96819.67
2019-02-28T01:39:04.627Z,96820.26
2019-02-28T01:41:30.955Z,96818.17
2019-02-28T01:43:57.339Z,96813.16
2019-02-28T01:46:23.682Z,96808.36
2019-02-28T01:48:50.226Z,96805.49
2019-02-28T01:51:16.656Z,96795.33
2019-02-28T01:53:42.941Z,96792.66
2019-02-28T01:56:09.485Z,96785.67
2019-02-28T01:58:35.892Z,96788.05
2019-02-28T02:01:02.405Z,96776.95
2019-02-28T02:03:28.691Z,96775.73
2019-02-28T02:05:55.132Z,96770.48
2019-02-28T02:08:21.603Z,96768.21
2019-02-28T02:10:48.156Z,96772.33
2019-02-28T02:13:14.646Z,96754.47
2019-02-28T02:15:41.038Z,96753.27
2019-02-28T02:18:09.310Z,96743.75
2019-02-28T02:20:35.913Z,96737.95
2019-02-28T02:23:02.247Z,96734.89
2019-02-28T02:25:28.531Z,96736.93
2019-02-28T02:27:55.032Z,96732.58
2019-02-28T02:30:22.921Z,96724.13
2019-02-28T02:32:49.339Z,96719.77
2019-02-28T02:35:15.741Z,96709.72
2019-02-28T02:37:42.085Z,96714.19
2019-02-28T02:40:12.089Z,96709.58
2019-02-28T02:42:38.417Z,96704.45
2019-02-28T02:45:08.253Z,96699.88
2019-02-28T02:47:34.685Z,96686.19
2019-02-28T02:50:01.072Z,96687.78
2019-02-28T02:52:30.452Z,96677.50
2019-02-28T02:54:55.868Z,96674.23
2019-02-28T02:57:22.198Z,96667.18
2019-02-28T02:59:48.516Z,96662.78
2019-02-28T03:02:15.037Z,96665.43
2019-02-28T03:04:41.869Z,96659.44
2019-02-28T03:07:08.257Z,96652.67
2019-02-28T03:09:34.927Z,96653.22
2019-02-28T03:12:01.397Z,96647.09
2019-02-28T03:14:27.899Z,96642.38
2019-02-28T03:16:54.424Z,96639.50
2019-02-28T03:19:20.770Z,96640.05
2019-02-28T03:21:51.882Z,96624.51
2019-02-28T03:24:16.426Z,96620.30
2019-02-28T03:26:43.411Z,96614.92
2019-02-28T03:29:09.911Z,96610.02
2019-02-28T03:31:36.270Z,96602.16
2019-02-28T03:34:10.113Z,96600.95
2019-02-28T03:36:31.353Z,96592.30
2019-02-28T03:38:57.737Z,96579.11
2019-02-28T03:41:24.504Z,96586.30
2019-02-28T03:43:50.929Z,96585.46
2019-02-28T03:46:17.386Z,96578.73
2019-02-28T03:48:43.875Z,96573.86
2019-02-28T03:51:10.267Z,96569.58
2019-02-28T03:53:36.701Z,96567.64
2019-02-28T03:56:03.138Z,96557.86
2019-02-28T03:58:29.948Z,96548.40
2019-02-28T04:00:56.530Z,96541.59
2019-02-28T04:03:22.840Z,96545.84
2019-02-28T04:05:49.253Z,96545.41
2019-02-28T04:08:15.561Z,96548.47
2019-02-28T04:10:41.998Z,96552.62
2019-02-28T04:13:08.447Z,96548.23
2019-02-28T04:15:35.036Z,96549.58
2019-02-28T04:18:07.053Z,96547.14
2019-02-28T04:20:36.148Z,96549.53
2019-02-28T04:22:59.870Z,96549.70
2019-02-28T04:25:26.637Z,96551.30
2019-02-28T04:27:53.108Z,96542.48
2019-02-28T04:30:19.425Z,96540.33
2019-02-28T04:32:45.813Z,96543.22
2019-02-28T04:35:12.381Z,96532.95
2019-02-28T04:37:45.019Z,96516.67
2019-02-28T04:40:09.836Z,96513.98
2019-02-28T04:42:38.293Z,96509.53
2019-02-28T04:45:11.479Z,96501.27
2019-02-28T04:47:40.516Z,96499.81
2019-02-28T04:50:10.012Z,96489.54
2019-02-28T04:52:36.464Z,96489.42
2019-02-28T04:55:04.641Z,96486.38
2019-02-28T04:57:30.959Z,96486.67
2019-02-28T04:59:57.360Z,96484.03
2019-02-28T05:02:23.788Z,96477.94
2019-02-28T05:04:50.535Z,96478.48
2019-02-28T05:07:16.926Z,96469.33
2019-02-28T05:09:45.240Z,96466.00
2019-02-28T05:12:11.660Z,96447.98
2019-02-28T05:14:37.964Z,96446.39
2019-02-28T05:17:04.331Z,96450.42
2019-02-28T05:19:32.371Z,96449.37
2019-02-28T05:21:58.993Z,96453.11
2019-02-28T05:24:25.347Z,96454.95
2019-02-28T05:26:51.646Z,96448.72
2019-02-28T05:29:18.246Z,96447.63
2019-02-28T05:31:44.527Z,96443.81
2019-02-28T05:34:13.183Z,96443.81
2019-02-28T05:36:39.361Z,96445.78
2019-02-28T05:39:05.683Z,96448.55
2019-02-28T05:41:31.967Z,96448.46
2019-02-28T05:43:58.407Z,96441.67
2019-02-28T05:46:24.699Z,96443.78
2019-02-28T05:48:51.112Z,96440.72
2019-02-28T05:51:17.601Z,96440.59
2019-02-28T05:53:44.123Z,96432.88
2019-02-28T05:56:10.483Z,96434.83
2019-02-28T05:58:36.766Z,96420.06
2019-02-28T06:01:03.267Z,96415.07
2019-02-28T06:03:30.400Z,96406.22
2019-02-28T06:05:56.984Z,96401.53
2019-02-28T06:08:23.451Z,96404.73
2019-02-28T06:10:49.900Z,96407.39
2019-02-28T06:13:18.299Z,96400.22
2019-02-28T06:15:44.791Z,96396.00
2019-02-28T06:18:11.719Z,96390.28
2019-02-28T06:20:38.139Z,96377.03
2019-02-28T06:23:06.256Z,96371.10
2019-02-28T06:25:32.936Z,96371.73
2019-02-28T06:27:59.499Z,96367.58
2019-02-28T06:30:27.666Z,96367.44
2019-02-28T06:32:57.814Z,96365.49
2019-02-28T06:35:22.528Z,96363.95
2019-02-28T06:37:48.954Z,96356.16
2019-02-28T06:40:16.093Z,96349.00
2019-02-28T06:42:43.470Z,96346.34
2019-02-28T06:45:18.972Z,96344.81
2019-02-28T06:47:48.713Z,96343.37
2019-02-28T06:50:15.583Z,96342.17
2019-02-28T06:52:42.078Z,96338.53
2019-02-28T06:55:12.610Z,96334.09
2019-02-28T06:57:39.077Z,96322.33
2019-02-28T07:00:14.549Z,96313.81
2019-02-28T07:02:40.963Z,96308.80
2019-02-28T07:05:07.280Z,96293.15
2019-02-28T07:07:33.624Z,96293.40
2019-02-28T07:10:00.284Z,96283.97
2019-02-28T07:12:29.799Z,96287.83
2019-02-28T07:14:54.921Z,96285.81
2019-02-28T07:17:21.454Z,96283.08
2019-02-28T07:19:48.102Z,96276.94
2019-02-28T07:22:19.204Z,96270.77
2019-02-28T07:24:43.172Z,96260.13
2019-02-28T07:27:09.531Z,96267.81
2019-02-28T07:29:37.831Z,96256.81
2019-02-28T07:32:04.433Z,96255.12
2019-02-28T07:34:30.715Z,96255.25
2019-02-28T07:36:57.287Z,96244.48
2019-02-28T07:39:23.965Z,96243.30
2019-02-28T07:41:50.603Z,96235.72
2019-02-28T07:44:21.197Z,96239.64
2019-02-28T07:46:45.438Z,96234.45
2019-02-28T07:49:11.827Z,96231.39
2019-02-28T07:51:38.477Z,96224.64
2019-02-28T07:54:04.874Z,96228.26
2019-02-28T07:56:31.231Z,96232.03
2019-02-28T07:58:57.560Z,96230.79
2019-02-28T08:01:24.516Z,96240.42
2019-02-28T08:03:52.359Z,96228.00
2019-02-28T08:06:18.748Z,96226.53
2019-02-28T08:08:45.155Z,96227.41
2019-02-28T08:11:11.588Z,96220.12
2019-02-28T08:13:38.643Z,96223.02
2019-02-28T08:16:05.219Z,96216.86
2019-02-28T08:18:31.726Z,96214.45
2019-02-28T08:20:58.190Z,96213.34
2019-02-28T08:23:24.679Z,96204.78
2019-02-28T08:25:51.312Z,96198.97
2019-02-28T08:28:18.115Z,96207.98
2019-02-28T08:30:44.698Z,96196.84
2019-02-28T08:33:11.178Z,96196.83
2019-02-28T08:35:37.629Z,96196.63
2019-02-28T08:38:03.906Z,96194.67
2019-02-28T08:40:30.276Z,96180.59
2019-02-28T08:42:56.686Z,96184.08
2019-02-28T08:45:22.987Z,96184.48
2019-02-28T08:47:55.417Z,96177.58
2019-02-28T08:50:24.272Z,96188.08
2019-02-28T08:53:04.533Z,96175.34
2019-02-28T08:55:30.930Z,96180.26
2019-02-28T08:58:04.427Z,96165.03
2019-02-28T09:00:31.255Z,96161.50
2019-02-28T09:02:54.877Z,96150.53
2019-02-28T09:05:25.469Z,96147.00
2019-02-28T09:07:51.289Z,96145.83
2019-02-28T09:10:19.743Z,96131.94
2019-02-28T09:12:46.405Z,96141.90
2019-02-28T09:15:17.067Z,96139.48
2019-02-28T09:17:43.476Z,96138.79
2019-02-28T09:20:14.123Z,96126.70
2019-02-28T09:22:40.856Z,96137.25
2019-02-28T09:25:23.705Z,96139.09
2019-02-28T09:27:50.114Z,96135.53
2019-02-28T09:30:29.777Z,96124.06
2019-02-28T09:32:57.675Z,96127.59
2019-02-28T09:35:24.184Z,96134.63
2019-02-28T09:37:50.628Z,96127.76
2019-02-28T09:40:17.028Z,96146.47
2019-02-28T09:42:44.564Z,96147.58
2019-02-28T09:45:20.722Z,96157.14
2019-02-28T09:47:46.998Z,96142.16
2019-02-28T09:50:22.611Z,96145.94
2019-02-28T09:52:49.750Z,96140.93
2019-02-28T09:55:16.240Z,96121.84
2019-02-28T09:57:42.685Z,96122.29
2019-02-28T10:00:18.833Z,96125.23
2019-02-28T10:02:45.354Z,96116.00
2019-02-28T10:05:12.210Z,96115.17
2019-02-28T10:07:38.743Z,96120.30
2019-02-28T10:10:26.340Z,96120.34
2019-02-28T10:12:52.992Z,96112.38
2019-02-28T10:15:21.424Z,96110.45
2019-02-28T10:17:47.849Z,96094.97
2019-02-28T10:20:18.400Z,96094.39
2019-02-28T10:22:47.337Z,96093.02
2019-02-28T10:25:14.007Z,96099.72
2019-02-28T10:27:40.582Z,96094.86
2019-02-28T10:30:15.614Z,96097.42
2019-02-28T10:32:43.334Z,96097.25
2019-02-28T10:35:09.115Z,96096.88
2019-02-28T10:37:35.783Z,96071.87
2019-02-28T10:40:09.732Z,96071.30
2019-02-28T10:42:36.992Z,96082.27
2019-02-28T10:45:09.077Z,96072.69
2019-02-28T10:47:35.409Z,96072.52
2019-02-28T10:50:01.977Z,96058.06
2019-02-28T10:52:30.650Z,96055.36
2019-02-28T10:54:57.028Z,96052.64
2019-02-28T10:57:23.333Z,96056.55
2019-02-28T10:59:49.792Z,96051.45
2019-02-28T11:02:18.937Z,96042.66
2019-02-28T11:04:45.295Z,96050.28
2019-02-28T11:07:11.715Z,96044.25
2019-02-28T11:09:38.288Z,96047.38
2019-02-28T11:12:04.829Z,96029.00
2019-02-28T11:14:31.152Z,96047.59
2019-02-28T11:16:59.396Z,96040.94
2019-02-28T11:19:25.944Z,96047.98
2019-02-28T11:21:52.510Z,96037.41
2019-02-28T11:24:20.627Z,96043.08
2019-02-28T11:26:47.265Z,96024.89
2019-02-28T11:29:13.589Z,96017.23
2019-02-28T11:31:39.877Z,96015.01
2019-02-28T11:34:06.508Z,96005.19
2019-02-28T11:36:33.986Z,95999.84
2019-02-28T11:39:01.451Z,95997.65
2019-02-28T11:41:27.848Z,95986.27
2019-02-28T11:43:54.243Z,95987.84
2019-02-28T11:46:20.545Z,95982.35
2019-02-28T11:48:46.879Z,95988.98
2019-02-28T11:51:14.620Z,95985.84
2019-02-28T11:53:41.819Z,95989.72
2019-02-28T11:56:08.103Z,95989.72
2019-02-28T11:58:34.508Z,95989.52
2019-02-28T12:01:02.296Z,95983.06
2019-02-28T12:03:31.854Z,95976.44
2019-02-28T12:05:57.476Z,95970.79
2019-02-28T12:08:23.898Z,95978.08
2019-02-28T12:10:50.376Z,95977.33
2019-02-28T12:13:19.629Z,95978.34
2019-02-28T12:15:44.946Z,95975.80
2019-02-28T12:18:11.603Z,95987.52
2019-02-28T12:20:38.016Z,95979.09
2019-02-28T12:23:04.348Z,95979.32
2019-02-28T12:25:30.638Z,95980.11
2019-02-28T12:27:59.352Z,95984.22
2019-02-28T12:30:31.103Z,95978.93
2019-02-28T12:32:57.423Z,95983.47
2019-02-28T12:35:23.817Z,95983.27
2019-02-28T12:37:50.251Z,95983.05
2019-02-28T12:40:23.946Z,95982.42
2019-02-28T12:42:50.605Z,95988.70
2019-02-28T12:45:25.524Z,95987.72
2019-02-28T12:47:52.093Z,95991.64
2019-02-28T12:50:18.455Z,95992.03
2019-02-28T12:52:49.052Z,95991.27
2019-02-28T12:55:18.264Z,95988.14
2019-02-28T12:57:44.593Z,95990.33
2019-02-28T13:00:43.044Z,95991.50
2019-02-28T13:03:10.508Z,95987.41
2019-02-28T13:05:36.956Z,95987.22
2019-02-28T13:08:05.811Z,95980.16
2019-02-28T13:10:32.131Z,95979.80
2019-02-28T13:13:06.447Z,95984.10
2019-02-28T13:15:27.403Z,95979.43
2019-02-28T13:17:53.692Z,95979.04
2019-02-28T13:20:33.700Z,95976.47
2019-02-28T13:22:59.650Z,95973.16
2019-02-28T13:25:26.050Z,95970.80
2019-02-28T13:27:52.573Z,95967.30
2019-02-28T13:30:22.604Z,95966.34
2019-02-28T13:32:49.088Z,95963.43
2019-02-28T13:35:22.553Z,95976.55
2019-02-28T13:37:48.895Z,95975.17
2019-02-28T13:40:15.283Z,95960.29
2019-02-28T13:42:42.325Z,95963.45
2019-02-28T13:45:23.075Z,95960.09
2019-02-28T13:47:47.818Z,95967.52
2019-02-28T13:50:22.033Z,95957.95
2019-02-28T13:52:52.171Z,95961.85
2019-02-28T13:55:18.902Z,95965.80
2019-02-28T13:57:47.033Z,95968.91
2019-02-28T14:00:27.571Z,95961.50
2019-02-28T14:02:56.954Z,95961.89
2019-02-28T14:05:23.313Z,95964.03
2019-02-28T14:07:49.624Z,95968.71
2019-02-28T14:10:17.740Z,95967.72
2019-02-28T14:12:44.294Z,95959.70
2019-02-28T14:18:32.136Z,95966.69
2019-02-28T14:20:59.448Z,95967.44
2019-02-28T14:23:26.780Z,95956.47
2019-02-28T14:25:53.345Z,95961.73
2019-02-28T14:28:19.814Z,95955.46
2019-02-28T14:30:46.242Z,95960.35
2019-02-28T14:33:12.582Z,95958.17
2019-02-28T14:35:38.988Z,95959.11
2019-02-28T14:38:05.561Z,95962.61
2019-02-28T14:40:31.947Z,95961.56
2019-02-28T14:42:58.380Z,95954.90
2019-02-28T14:45:34.597Z,95959.34
2019-02-28T14:48:03.945Z,95946.81
2019-02-28T14:50:29.103Z,95954.39
2019-02-28T14:52:56.800Z,95951.45
2019-02-28T14:55:23.332Z,95946.57
2019-02-28T14:57:49.868Z,95946.95
2019-02-28T15:00:25.072Z,95954.77
2019-02-28T15:02:51.484Z,95953.39
2019-02-28T15:05:20.499Z,95945.20
2019-02-28T15:07:46.120Z,95954.35
2019-02-28T15:10:23.075Z,95953.56
2019-02-28T15:12:49.468Z,95951.00
2019-02-28T15:15:18.898Z,95950.42
2019-02-28T15:17:45.462Z,95949.80
2019-02-28T15:20:13.512Z,95952.29
2019-02-28T15:22:40.133Z,95954.97
2019-02-28T15:25:23.335Z,95951.78
2019-02-28T15:27:49.969Z,95943.13
2019-02-28T15:30:26.523Z,95942.30
2019-02-28T15:32:54.243Z,95957.80
2019-02-28T15:35:21.912Z,95957.74
2019-02-28T15:37:48.247Z,95963.52
2019-02-28T15:40:28.849Z,95960.91
2019-02-28T15:42:55.314Z,95954.58
2019-02-28T15:45:22.025Z,95960.37
2019-02-28T15:47:50.538Z,95953.06
2019-02-28T15:50:17.156Z,95957.08
2019-02-28T15:52:43.792Z,95952.50
2019-02-28T15:55:16.451Z,95957.33
2019-02-28T15:57:42.781Z,95954.66
2019-02-28T16:00:22.088Z,95962.63
2019-02-28T16:02:48.364Z,95971.50
2019-02-28T16:05:14.697Z,95965.10
2019-02-28T16:07:41.163Z,95965.10
2019-02-28T16:10:12.352Z,95959.56
2019-02-28T16:12:38.655Z,95965.53
2019-02-28T16:15:11.915Z,95963.75
2019-02-28T16:17:37.400Z,95969.59
2019-02-28T16:20:08.604Z,95974.03
2019-02-28T16:22:35.094Z,95974.91
2019-02-28T16:25:01.592Z,95981.69
2019-02-28T16:27:29.533Z,95989.80
2019-02-28T16:29:56.733Z,95984.31
2019-02-28T16:32:23.263Z,95983.68
2019-02-28T16:34:49.618Z,95992.03
2019-02-28T16:37:16.435Z,95991.96
2019-02-28T16:39:42.987Z,95989.96
2019-02-28T16:42:11.598Z,95994.58
2019-02-28T16:44:37.496Z,95998.96
2019-02-28T16:47:03.986Z,96001.05
2019-02-28T16:49:30.354Z,96013.23
2019-02-28T16:51:56.788Z,96007.09
2019-02-28T16:54:23.685Z,96007.45
2019-02-28T16:57:54.953Z,96003.59
2019-02-28T17:00:21.448Z,96012.43
2019-02-28T17:02:47.747Z,96015.69
2019-02-28T17:05:13.964Z,96014.25
2019-02-28T17:07:40.532Z,96021.02
2019-02-28T17:10:14.134Z,96019.22
2019-02-28T17:12:59.532Z,96015.28
2019-02-28T17:15:35.155Z,96014.50
2019-02-28T17:18:03.458Z,96013.70
2019-02-28T17:20:29.823Z,96017.79
2019-02-28T17:22:58.555Z,96020.72
2019-02-28T17:25:24.457Z,96028.89
2019-02-28T17:27:58.680Z,96028.31
2019-02-28T17:30:36.000Z,96027.74
2019-02-28T17:33:01.168Z,96035.12
2019-02-28T17:35:27.552Z,96037.05
2019-02-28T17:37:53.869Z,96041.34
2019-02-28T17:40:23.190Z,96039.98
2019-02-28T17:42:49.824Z,96041.70
2019-02-28T17:45:20.586Z,96046.00
2019-02-28T17:48:09.691Z,96049.16
2019-02-28T17:50:47.799Z,96041.92
2019-02-28T17:53:59.560Z,96040.91
2019-02-28T17:57:10.639Z,96044.99
2019-02-28T18:00:24.083Z,96047.14
2019-02-28T18:03:22.985Z,96049.03
2019-02-28T18:06:00.636Z,96051.67
2019-02-28T18:08:47.441Z,96054.70
2019-02-28T18:11:35.104Z,96060.86
2019-02-28T18:14:42.351Z,96046.42
2019-02-28T18:17:38.777Z,96064.23
2019-02-28T18:20:29.060Z,96059.32
2019-02-28T18:23:24.890Z,96068.19
2019-02-28T18:26:15.192Z,96071.41
2019-02-28T18:28:58.101Z,96072.36
2019-02-28T18:31:24.338Z,96084.64
2019-02-28T18:33:54.744Z,96079.51
2019-02-28T18:36:27.431Z,96086.03
2019-02-28T18:38:53.734Z,96080.86
2019-02-28T18:41:20.199Z,96087.61
2019-02-28T18:43:46.389Z,96082.09
2019-02-28T18:46:12.695Z,96083.39
2019-02-28T18:48:39.004Z,96077.43
2019-02-28T18:51:05.320Z,96084.73
2019-02-28T18:53:31.837Z,96074.51
2019-02-28T18:55:58.204Z,96085.86
2019-02-28T18:58:24.541Z,96080.94
2019-02-28T19:00:50.935Z,96085.14
2019-02-28T19:03:17.371Z,96086.44
2019-02-28T19:05:43.843Z,96083.06
2019-02-28T19:08:10.407Z,96083.77
2019-02-28T19:10:36.912Z,96091.41
2019-02-28T19:13:04.538Z,96090.18
2019-02-28T19:15:31.031Z,96092.27
2019-02-28T19:17:57.705Z,96089.02
2019-02-28T19:20:24.033Z,96083.87
2019-02-28T19:22:50.350Z,96086.58
2019-02-28T19:25:16.897Z,96091.22
2019-02-28T19:27:43.244Z,96096.09
2019-02-28T19:30:14.316Z,96094.29
2019-02-28T19:32:40.725Z,96099.31
2019-02-28T19:35:07.175Z,96099.34
2019-02-28T19:37:33.435Z,96110.12
2019-02-28T19:39:59.829Z,96117.61
2019-02-28T19:42:26.183Z,96121.92
2019-02-28T19:44:52.476Z,96118.32
2019-02-28T19:47:18.766Z,96123.91
2019-02-28T19:49:45.144Z,96123.02
2019-02-28T19:52:11.335Z,96128.78
2019-02-28T19:54:37.655Z,96123.92
2019-02-28T19:57:03.965Z,96120.45
2019-02-28T19:59:30.408Z,96118.08
2019-02-28T20:01:56.826Z,96121.36
2019-02-28T20:04:23.126Z,96114.58
2019-02-28T20:06:49.428Z,96123.06
2019-02-28T20:09:15.939Z,96121.36
2019-02-28T20:11:42.248Z,96124.30
2019-02-28T20:14:08.785Z,96129.95
2019-02-28T20:16:35.184Z,96131.30
2019-02-28T20:19:01.748Z,96129.95
2019-02-28T20:21:28.195Z,96131.50
2019-02-28T20:23:54.532Z,96126.08
2019-02-28T20:26:20.965Z,96129.58
2019-02-28T20:28:47.603Z,96136.02
2019-02-28T20:31:14.129Z,96136.23
2019-02-28T20:33:40.682Z,96131.94
2019-02-28T20:36:06.968Z,96136.23
2019-02-28T20:38:33.483Z,96134.88
2019-02-28T20:40:59.847Z,96135.33
2019-02-28T20:43:26.277Z,96129.55
2019-02-28T20:45:52.572Z,96138.91
2019-02-28T20:48:18.998Z,96141.84
2019-02-28T20:50:52.155Z,96153.96
2019-02-28T20:53:18.351Z,96143.89
2019-02-28T20:55:44.672Z,96148.38
2019-02-28T20:58:10.988Z,96155.16
2019-02-28T21:00:37.583Z,96148.60
2019-02-28T21:03:03.873Z,96154.82
2019-02-28T21:05:30.176Z,96147.24
2019-02-28T21:07:56.814Z,96154.48
2019-02-28T21:10:23.275Z,96145.20
2019-02-28T21:12:49.616Z,96149.84
2019-02-28T21:15:16.138Z,96156.05
2019-02-28T21:17:42.651Z,96150.63
2019-02-28T21:20:14.657Z,96146.55
2019-02-28T21:22:40.954Z,96142.04
2019-02-28T21:25:13.937Z,96148.38
2019-02-28T21:27:40.223Z,96146.35
2019-02-28T21:30:25.555Z,96154.50
2019-02-28T21:32:52.036Z,96150.68
2019-02-28T21:35:18.705Z,96150.42
2019-02-28T21:37:46.848Z,96155.06
2019-02-28T21:40:17.989Z,96147.17
2019-02-28T21:42:44.377Z,96155.86
2019-02-28T21:45:17.180Z,96159.14
2019-02-28T21:47:43.467Z,96161.97
2019-02-28T21:50:15.143Z,96161.97
2019-02-28T21:52:41.526Z,96164.27
2019-02-28T21:55:11.274Z,96163.82
2019-02-28T21:57:37.763Z,96176.03
2019-02-28T22:00:09.575Z,96169.25
2019-02-28T22:02:35.932Z,96173.32
2019-02-28T22:05:02.372Z,96179.66
2019-02-28T22:07:28.686Z,96171.07
2019-02-28T22:09:55.155Z,96173.56
2019-02-28T22:12:21.550Z,96176.08
2019-02-28T22:14:48.015Z,96170.44
2019-02-28T22:17:14.374Z,96171.56
2019-02-28T22:19:40.886Z,96169.76
2019-02-28T22:22:07.545Z,96172.47
2019-02-28T22:24:33.885Z,96181.75
2019-02-28T22:27:00.284Z,96172.81
2019-02-28T22:29:26.650Z,96174.52
2019-02-28T22:31:57.570Z,96175.23
2019-02-28T22:34:31.539Z,96182.47
2019-02-28T22:36:57.900Z,96183.59
2019-02-28T22:39:24.391Z,96187.44
2019-02-28T22:41:50.600Z,96179.08
2019-02-28T22:44:16.989Z,96181.00
2019-02-28T22:46:43.279Z,96182.92
2019-02-28T22:49:09.647Z,96185.19
2019-02-28T22:51:36.183Z,96185.56
2019-02-28T22:54:02.617Z,96192.69
2019-02-28T22:56:28.924Z,96190.66
2019-02-28T22:58:55.303Z,96193.94
2019-02-28T23:01:22.116Z,96198.15
2019-02-28T23:03:48.654Z,96197.93
2019-02-28T23:06:15.017Z,96199.06
2019-02-28T23:08:41.628Z,96200.75
2019-02-28T23:11:07.980Z,96199.73
2019-02-28T23:13:34.440Z,96202.23
2019-02-28T23:16:00.726Z,96203.16
2019-02-28T23:18:27.448Z,96209.72
2019-02-28T23:20:53.970Z,96210.85
2019-02-28T23:23:20.298Z,96211.64
2019-02-28T23:25:46.926Z,96200.69
2019-02-28T23:28:24.413Z,96209.38
2019-02-28T23:31:30.172Z,96209.95
2019-02-28T23:34:10.667Z,96208.37
2019-02-28T23:36:37.303Z,96213.80
2019-02-28T23:39:05.739Z,96210.89
2019-02-28T23:41:32.055Z,96220.16
2019-02-28T23:43:58.866Z,96211.34
2019-02-28T23:46:25.293Z,96208.41
2019-02-28T23:48:51.721Z,96201.39
2019-02-28T23:51:18.061Z,96205.23
2019-02-28T23:53:44.468Z,96204.59
2019-02-28T23:56:10.895Z,96201.20
2019-02-28T23:58:37.327Z,96204.82
